createdAt,value
2022-10-09T00:00:05.080Z,7.87
2022-10-09T00:15:05.212Z,7.69
2022-10-09T00:30:05.307Z,7.16
2022-10-09T00:45:05.411Z,6.94
2022-10-09T01:00:05.497Z,6.88
2022-10-09T01:15:06.878Z,7.03
2022-10-09T01:30:06.964Z,6.79
2022-10-09T01:45:07.097Z,6.64
2022-10-09T02:00:07.196Z,6.59
2022-10-09T02:15:07.334Z,6.64
2022-10-09T02:30:07.421Z,6.51
2022-10-09T02:45:08.018Z,6.37
2022-10-09T03:00:08.617Z,6.19
2022-10-09T03:15:08.732Z,6.22
2022-10-09T03:30:08.833Z,6.21
2022-10-09T03:45:09.465Z,5.89
2022-10-09T04:00:10.090Z,5.57
2022-10-09T04:15:10.187Z,5.12
2022-10-09T04:30:10.264Z,4.65
2022-10-09T04:45:10.988Z,4.08
2022-10-09T05:00:11.023Z,3.72
2022-10-09T05:15:11.613Z,3.40
2022-10-09T05:30:12.204Z,2.96
2022-10-09T05:45:12.337Z,2.96
2022-10-09T06:00:12.516Z,3.47
2022-10-09T06:15:13.057Z,4.12
2022-10-09T06:30:13.195Z,5.04
2022-10-09T06:45:13.474Z,5.74
2022-10-09T07:00:13.554Z,6.41
2022-10-09T07:15:14.178Z,6.97
2022-10-09T07:30:14.781Z,7.71
2022-10-09T07:45:14.888Z,8.70
2022-10-09T08:00:15.013Z,9.43
2022-10-09T08:15:15.116Z,10.53
2022-10-09T08:30:15.245Z,12.23
2022-10-09T08:45:15.405Z,13.82
2022-10-09T09:00:15.626Z,15.19
2022-10-09T09:15:15.683Z,16.48
2022-10-09T09:30:15.760Z,17.01
2022-10-09T09:45:15.898Z,17.40
2022-10-09T10:00:16.024Z,17.64
2022-10-09T10:15:16.123Z,18.62
2022-10-09T10:30:16.225Z,19.32
2022-10-09T10:45:16.298Z,19.65
2022-10-09T11:00:17.088Z,18.75
2022-10-09T11:15:17.391Z,19.22
2022-10-09T11:30:17.255Z,20.01
2022-10-09T11:45:17.893Z,19.76
2022-10-09T12:00:18.565Z,19.87
2022-10-09T12:15:18.615Z,20.24
2022-10-09T12:30:18.708Z,20.39
2022-10-09T12:45:20.249Z,20.66
2022-10-09T13:00:21.609Z,19.96
2022-10-09T13:15:22.101Z,20.42
2022-10-09T13:30:22.211Z,18.90
2022-10-09T13:45:23.784Z,19.00
2022-10-09T14:00:23.836Z,18.63
2022-10-09T14:15:25.669Z,17.96
2022-10-09T14:30:25.594Z,18.35
2022-10-09T14:45:25.920Z,18.69
2022-10-09T15:00:26.067Z,18.78
2022-10-09T15:15:30.305Z,17.78
2022-10-09T15:30:31.218Z,16.79
2022-10-09T15:45:31.805Z,15.54
2022-10-09T16:00:32.982Z,14.37
2022-10-09T16:15:32.845Z,13.33
2022-10-09T16:30:34.425Z,12.46
2022-10-09T16:45:34.548Z,11.29
2022-10-09T17:00:34.729Z,10.42
2022-10-09T17:15:35.412Z,9.66
2022-10-09T17:30:36.004Z,9.01
2022-10-09T17:45:39.137Z,8.30
2022-10-09T18:00:39.802Z,7.89
2022-10-09T18:15:39.788Z,7.25
2022-10-09T18:30:39.961Z,6.92
2022-10-09T18:45:39.998Z,6.51
2022-10-09T19:00:40.333Z,6.43
2022-10-09T19:15:40.314Z,6.18
2022-10-09T19:30:40.455Z,5.81
2022-10-09T19:45:41.904Z,5.67
2022-10-09T20:00:42.194Z,5.33
2022-10-09T20:15:42.203Z,5.21
2022-10-09T20:30:43.834Z,4.94
2022-10-09T20:45:43.580Z,4.75
2022-10-09T21:00:43.705Z,4.75
2022-10-09T21:15:43.859Z,4.67
2022-10-09T21:30:43.951Z,4.89
2022-10-09T21:45:44.080Z,5.00
2022-10-09T22:00:44.147Z,4.84
2022-10-09T22:15:48.841Z,4.59
2022-10-09T22:30:49.392Z,4.58
2022-10-09T22:45:49.560Z,4.42
2022-10-09T23:00:49.672Z,4.23
2022-10-09T23:15:50.176Z,3.90
2022-10-09T23:30:50.299Z,4.06
2022-10-09T23:45:50.478Z,4.24
